createdAt,value
2024-05-09T00:02:37.073Z,16.38
2024-05-09T00:05:24.117Z,16.08
2024-05-09T00:08:13.704Z,16.70
2024-05-09T00:11:00.880Z,17.55
2024-05-09T00:13:47.883Z,17.30
2024-05-09T00:16:34.844Z,16.77
2024-05-09T00:19:21.903Z,18.65
2024-05-09T00:22:08.925Z,18.27
2024-05-09T00:24:55.860Z,18.75
2024-05-09T00:27:42.862Z,19.88
2024-05-09T00:30:34.610Z,21.45
2024-05-09T00:33:23.703Z,20.15
2024-05-09T00:36:10.790Z,20.58
2024-05-09T00:39:00.008Z,21.10
2024-05-09T00:41:47.029Z,20.30
2024-05-09T00:44:34.105Z,20.42
2024-05-09T00:47:21.879Z,19.58
2024-05-09T00:50:15.952Z,22.42
2024-05-09T00:53:16.534Z,21.63
2024-05-09T00:56:05.232Z,21.73
2024-05-09T00:58:52.337Z,21.05
2024-05-09T01:01:41.182Z,21.33
2024-05-09T01:04:28.211Z,21.73
2024-05-09T01:07:15.428Z,22.10
2024-05-09T01:10:02.439Z,21.10
2024-05-09T01:12:49.724Z,20.30
2024-05-09T01:15:36.662Z,21.13
2024-05-09T01:18:24.130Z,20.88
2024-05-09T01:21:11.342Z,21.40
2024-05-09T01:24:00.588Z,21.42
2024-05-09T01:26:47.678Z,21.42
2024-05-09T01:29:34.640Z,21.48
2024-05-09T01:32:21.881Z,22.50
2024-05-09T01:35:09.082Z,22.42
2024-05-09T01:37:58.498Z,22.00
2024-05-09T01:40:48.659Z,22.05
2024-05-09T01:43:35.587Z,22.48
2024-05-09T01:46:22.564Z,21.30
2024-05-09T01:49:09.692Z,21.48
2024-05-09T01:51:56.708Z,21.77
2024-05-09T01:54:43.611Z,22.38
2024-05-09T01:57:30.553Z,23.50
2024-05-09T02:00:26.236Z,22.35
2024-05-09T02:03:21.700Z,20.63
2024-05-09T02:06:08.816Z,21.20
2024-05-09T02:08:56.033Z,20.75
2024-05-09T02:11:44.331Z,21.63
2024-05-09T02:14:31.504Z,19.80
2024-05-09T02:17:18.602Z,20.23
2024-05-09T02:20:13.240Z,21.38
2024-05-09T02:23:06.336Z,20.80
2024-05-09T02:25:56.020Z,21.00
2024-05-09T02:28:43.159Z,21.20
2024-05-09T02:31:32.455Z,21.95
2024-05-09T02:34:19.513Z,21.67
2024-05-09T02:37:06.597Z,22.00
2024-05-09T02:39:55.863Z,22.27
2024-05-09T02:42:42.817Z,21.50
2024-05-09T02:45:32.010Z,22.67
2024-05-09T02:48:19.214Z,22.13
2024-05-09T02:51:06.377Z,22.92
2024-05-09T02:53:53.379Z,22.48
2024-05-09T02:56:40.394Z,21.60
2024-05-09T02:59:27.526Z,22.60
2024-05-09T03:02:14.704Z,22.25
2024-05-09T03:05:04.451Z,22.83
2024-05-09T03:07:51.437Z,23.55
2024-05-09T03:10:39.320Z,24.58
2024-05-09T03:13:26.726Z,22.58
2024-05-09T03:16:13.731Z,23.90
2024-05-09T03:19:00.750Z,24.13
2024-05-09T03:21:47.741Z,23.13
2024-05-09T03:24:34.660Z,24.08
2024-05-09T03:27:21.631Z,23.77
2024-05-09T03:30:09.875Z,23.42
2024-05-09T03:32:57.584Z,23.48
2024-05-09T03:35:44.647Z,25.00
2024-05-09T03:38:37.063Z,23.50
2024-05-09T03:41:24.148Z,24.20
2024-05-09T03:44:11.161Z,24.50
2024-05-09T03:46:58.275Z,23.95
2024-05-09T03:49:45.211Z,24.00
2024-05-09T03:52:34.405Z,23.35
2024-05-09T03:55:21.346Z,22.27
2024-05-09T03:58:08.728Z,22.42
2024-05-09T04:00:58.106Z,21.00
2024-05-09T04:03:45.213Z,20.63
2024-05-09T04:06:32.267Z,19.85
2024-05-09T04:09:19.158Z,20.70
2024-05-09T04:12:07.839Z,20.20
2024-05-09T04:14:54.948Z,19.40
2024-05-09T04:17:42.373Z,20.35
2024-05-09T04:20:37.320Z,20.40
2024-05-09T04:23:26.965Z,21.83
2024-05-09T04:26:14.056Z,20.02
2024-05-09T04:29:04.017Z,21.20
2024-05-09T04:31:51.257Z,21.20
2024-05-09T04:34:38.325Z,20.30
2024-05-09T04:37:26.329Z,19.33
2024-05-09T04:40:24.250Z,18.88
2024-05-09T04:43:21.294Z,20.25
2024-05-09T04:46:08.217Z,17.80
2024-05-09T04:48:57.333Z,19.08
2024-05-09T04:51:44.380Z,18.92
2024-05-09T04:54:36.228Z,19.20
2024-05-09T04:57:23.743Z,19.52
2024-05-09T05:00:14.871Z,20.00
2024-05-09T05:03:12.788Z,19.58
2024-05-09T05:06:02.460Z,20.13
2024-05-09T05:08:49.490Z,17.85
2024-05-09T05:11:36.574Z,18.52
2024-05-09T05:14:23.655Z,18.58
2024-05-09T05:17:10.741Z,17.77
2024-05-09T05:19:58.707Z,17.17
2024-05-09T05:22:45.831Z,17.75
2024-05-09T05:25:32.806Z,16.23
2024-05-09T05:28:19.996Z,16.30
2024-05-09T05:31:09.274Z,15.38
2024-05-09T05:33:56.435Z,15.93
2024-05-09T05:36:45.727Z,15.57
2024-05-09T05:39:32.632Z,15.18
2024-05-09T05:42:19.589Z,15.73
2024-05-09T05:45:10.301Z,15.68
2024-05-09T05:47:59.975Z,15.75
2024-05-09T05:50:47.215Z,15.65
2024-05-09T05:53:34.553Z,15.07
2024-05-09T05:56:21.673Z,15.88
2024-05-09T05:59:08.819Z,16.80
2024-05-09T06:01:55.847Z,16.17
2024-05-09T06:04:43.001Z,15.38
2024-05-09T06:07:29.980Z,16.52
2024-05-09T06:10:21.523Z,16.08
2024-05-09T06:13:13.716Z,15.85
2024-05-09T06:16:02.419Z,15.55
2024-05-09T06:18:51.983Z,15.20
2024-05-09T06:21:39.154Z,14.68
2024-05-09T06:24:26.068Z,16.00
2024-05-09T06:27:13.072Z,15.60
2024-05-09T06:30:00.119Z,14.73
2024-05-09T06:32:47.323Z,13.55
2024-05-09T06:35:34.480Z,13.68
2024-05-09T06:38:21.604Z,13.52
2024-05-09T06:41:11.014Z,12.77
2024-05-09T06:43:58.029Z,13.70
2024-05-09T06:46:46.102Z,14.30
2024-05-09T06:49:33.298Z,13.23
2024-05-09T06:52:20.307Z,13.93
2024-05-09T06:55:09.652Z,13.63
2024-05-09T06:57:59.044Z,13.98
2024-05-09T07:00:46.112Z,16.20
2024-05-09T07:03:33.297Z,16.02
2024-05-09T07:06:20.293Z,14.75
2024-05-09T07:09:09.496Z,14.95
2024-05-09T07:11:56.614Z,16.13
2024-05-09T07:14:43.749Z,15.73
2024-05-09T07:17:31.029Z,14.32
2024-05-09T07:20:23.706Z,14.15
2024-05-09T07:23:21.678Z,13.90
2024-05-09T07:26:08.949Z,12.02
2024-05-09T07:28:58.335Z,12.38
2024-05-09T07:31:47.872Z,11.70
2024-05-09T07:34:37.694Z,11.68
2024-05-09T07:37:24.680Z,11.85
2024-05-09T07:40:21.060Z,9.30
2024-05-09T07:43:14.972Z,8.38
2024-05-09T07:46:51.812Z,8.10
2024-05-09T07:53:24.931Z,8.23
2024-05-09T07:55:10.483Z,7.43
2024-05-09T07:58:02.458Z,6.50
2024-05-09T08:00:49.557Z,6.45
2024-05-09T08:03:37.998Z,6.68
2024-05-09T08:06:25.870Z,6.35
2024-05-09T08:09:16.923Z,6.70
2024-05-09T08:12:09.404Z,6.32
2024-05-09T08:15:01.369Z,6.65
2024-05-09T08:17:50.736Z,6.80
2024-05-09T08:20:38.464Z,7.00
2024-05-09T08:23:28.865Z,7.63
2024-05-09T08:26:18.511Z,6.93
2024-05-09T08:29:05.489Z,6.75
2024-05-09T08:31:55.980Z,8.35
2024-05-09T08:34:43.137Z,7.82
2024-05-09T08:37:34.991Z,8.00
2024-05-09T08:40:34.196Z,7.80
2024-05-09T08:43:26.744Z,7.10
2024-05-09T08:46:18.857Z,7.28
2024-05-09T08:49:09.132Z,7.93
2024-05-09T08:51:56.662Z,8.45
2024-05-09T08:54:46.084Z,7.13
2024-05-09T08:57:35.752Z,6.88
2024-05-09T09:00:33.882Z,7.18
2024-05-09T09:03:30.219Z,6.55
2024-05-09T09:06:21.727Z,6.20
2024-05-09T09:09:12.418Z,5.90
2024-05-09T09:11:59.511Z,5.75
2024-05-09T09:14:48.720Z,5.63
2024-05-09T09:17:39.136Z,5.85
2024-05-09T09:20:36.402Z,6.40
2024-05-09T09:23:29.843Z,6.03
2024-05-09T09:26:22.239Z,5.70
2024-05-09T09:29:11.274Z,6.55
2024-05-09T09:32:04.548Z,6.35
2024-05-09T09:34:52.153Z,7.17
2024-05-09T09:37:39.258Z,7.32
2024-05-09T09:40:32.253Z,6.88
2024-05-09T09:43:22.594Z,7.60
2024-05-09T09:46:13.662Z,7.60
2024-05-09T09:49:00.854Z,7.65
2024-05-09T09:51:49.418Z,6.65
2024-05-09T09:54:36.466Z,5.90
2024-05-09T09:57:27.288Z,5.95
2024-05-09T10:00:24.578Z,8.10
2024-05-09T10:03:17.475Z,5.60
2024-05-09T10:06:05.373Z,6.20
2024-05-09T10:08:55.430Z,5.25
2024-05-09T10:11:51.788Z,5.32
2024-05-09T10:14:45.760Z,4.97
2024-05-09T10:17:32.833Z,4.68
2024-05-09T10:20:24.766Z,4.40
2024-05-09T10:23:32.456Z,4.60
2024-05-09T10:26:32.388Z,4.38
2024-05-09T10:29:20.094Z,4.25
2024-05-09T10:32:08.638Z,5.00
2024-05-09T10:35:19.271Z,4.82
2024-05-09T10:38:08.891Z,4.75
2024-05-09T10:41:00.106Z,4.38
2024-05-09T10:43:47.730Z,4.40
2024-05-09T10:46:34.740Z,4.15
2024-05-09T10:49:24.480Z,4.03
2024-05-09T10:52:11.582Z,4.20
2024-05-09T10:54:59.933Z,3.90
2024-05-09T10:57:50.464Z,3.70
2024-05-09T11:00:37.724Z,3.55
2024-05-09T11:03:25.939Z,3.17
2024-05-09T11:06:14.840Z,2.88
2024-05-09T11:09:01.933Z,2.70
2024-05-09T11:11:51.737Z,2.72
2024-05-09T11:14:51.907Z,2.60
2024-05-09T11:17:38.911Z,2.80
2024-05-09T11:20:39.497Z,2.30
2024-05-09T11:23:30.066Z,2.58
2024-05-09T11:26:22.673Z,2.60
2024-05-09T11:29:12.536Z,2.55
2024-05-09T11:32:00.264Z,2.70
2024-05-09T11:34:49.820Z,2.53
2024-05-09T11:37:39.683Z,2.53
2024-05-09T11:40:32.358Z,2.70
2024-05-09T11:43:21.475Z,2.63
2024-05-09T11:46:11.710Z,2.28
2024-05-09T11:48:58.887Z,2.45
2024-05-09T11:51:45.960Z,2.50
2024-05-09T11:54:32.954Z,2.08
2024-05-09T11:57:24.408Z,2.30
2024-05-09T12:00:17.854Z,2.80
2024-05-09T12:03:06.089Z,3.05
2024-05-09T12:05:53.611Z,2.70
2024-05-09T12:08:41.198Z,2.60
2024-05-09T12:11:28.214Z,2.50
2024-05-09T12:14:15.205Z,2.83
2024-05-09T12:17:03.797Z,3.47
2024-05-09T12:19:52.748Z,3.08
2024-05-09T12:22:39.734Z,2.47
2024-05-09T12:25:29.219Z,2.70
2024-05-09T12:28:19.254Z,2.85
2024-05-09T12:31:06.384Z,2.85
2024-05-09T12:33:54.719Z,2.80
2024-05-09T12:36:42.858Z,2.47
2024-05-09T12:39:29.830Z,2.70
2024-05-09T12:42:26.489Z,2.83
2024-05-09T12:45:15.280Z,2.80
2024-05-09T12:48:02.576Z,2.50
2024-05-09T12:50:52.046Z,2.60
2024-05-09T12:53:39.110Z,2.42
2024-05-09T12:56:33.552Z,2.72
2024-05-09T12:59:20.522Z,2.10
2024-05-09T13:02:07.757Z,2.38
2024-05-09T13:04:57.298Z,2.70
2024-05-09T13:07:44.936Z,2.63
2024-05-09T13:10:33.280Z,2.60
2024-05-09T13:13:20.730Z,2.53
2024-05-09T13:16:08.326Z,2.50
2024-05-09T13:18:55.462Z,2.28
2024-05-09T13:21:42.558Z,2.22
2024-05-09T13:24:31.815Z,2.50
2024-05-09T13:27:19.130Z,2.47
2024-05-09T13:30:12.056Z,2.35
2024-05-09T13:33:06.065Z,2.30
2024-05-09T13:35:54.089Z,2.38
2024-05-09T13:38:41.040Z,2.50
2024-05-09T13:41:27.998Z,2.55
2024-05-09T13:44:15.073Z,2.70
2024-05-09T13:47:04.655Z,2.05
2024-05-09T13:49:51.895Z,2.60
2024-05-09T13:52:38.856Z,2.35
2024-05-09T13:55:28.405Z,2.65
2024-05-09T13:58:15.599Z,2.35
2024-05-09T14:01:02.808Z,2.70
2024-05-09T14:03:54.745Z,2.30
2024-05-09T14:06:41.999Z,2.10
2024-05-09T14:09:28.981Z,2.33
2024-05-09T14:12:16.151Z,2.17
2024-05-09T14:15:03.075Z,2.40
2024-05-09T14:17:50.063Z,2.30
2024-05-09T14:20:38.077Z,2.20
2024-05-09T14:23:25.023Z,2.30
2024-05-09T14:26:12.126Z,2.17
2024-05-09T14:28:59.116Z,2.05
2024-05-09T14:31:46.345Z,1.98
2024-05-09T14:34:33.623Z,2.55
2024-05-09T14:37:20.915Z,2.03
2024-05-09T14:40:14.689Z,1.77
2024-05-09T14:43:11.519Z,1.85
2024-05-09T14:45:59.351Z,2.15
2024-05-09T14:48:48.976Z,1.88
2024-05-09T14:51:36.140Z,1.83
2024-05-09T14:54:23.148Z,2.00
2024-05-09T14:57:10.238Z,1.95
2024-05-09T14:59:57.211Z,2.38
2024-05-09T15:02:44.216Z,2.20
2024-05-09T15:05:31.272Z,2.28
2024-05-09T15:08:19.546Z,2.40
2024-05-09T15:11:09.045Z,2.30
2024-05-09T15:14:00.661Z,1.90
2024-05-09T15:16:50.723Z,2.25
2024-05-09T15:19:37.856Z,2.65
2024-05-09T15:22:24.964Z,2.20
2024-05-09T15:25:11.952Z,2.30
2024-05-09T15:27:59.096Z,1.67
2024-05-09T15:30:48.806Z,2.30
2024-05-09T15:33:35.909Z,2.22
2024-05-09T15:36:22.947Z,2.00
2024-05-09T15:39:09.884Z,2.10
2024-05-09T15:41:59.227Z,2.15
2024-05-09T15:44:52.661Z,2.17
2024-05-09T15:47:39.804Z,2.10
2024-05-09T15:50:36.410Z,2.17
2024-05-09T15:53:26.941Z,2.15
2024-05-09T15:56:13.968Z,2.38
2024-05-09T15:59:01.116Z,1.98
2024-05-09T16:01:48.138Z,2.03
2024-05-09T16:04:35.320Z,2.00
2024-05-09T16:07:22.348Z,2.00
2024-05-09T16:10:16.082Z,2.03
2024-05-09T16:13:08.810Z,1.83
2024-05-09T16:15:56.077Z,2.00
2024-05-09T16:18:43.288Z,2.17
2024-05-09T16:21:30.350Z,2.22
2024-05-09T16:24:17.303Z,1.92
2024-05-09T16:27:06.621Z,4.32
2024-05-09T16:29:53.682Z,2.10
2024-05-09T16:32:43.967Z,2.10
2024-05-09T16:35:31.010Z,1.95
2024-05-09T16:38:18.994Z,2.55
2024-05-09T16:41:05.914Z,2.30
2024-05-09T16:43:55.134Z,2.65
2024-05-09T16:46:42.092Z,2.10
2024-05-09T16:49:29.841Z,2.03
2024-05-09T16:52:16.995Z,2.10
2024-05-09T16:55:04.504Z,2.35
2024-05-09T16:57:51.988Z,2.22
2024-05-09T17:00:43.568Z,2.00
2024-05-09T17:03:31.424Z,1.90
2024-05-09T17:06:18.740Z,1.90
2024-05-09T17:09:11.853Z,1.80
2024-05-09T17:12:02.505Z,2.22
2024-05-09T17:14:49.450Z,2.05
2024-05-09T17:17:36.468Z,1.98
2024-05-09T17:20:31.296Z,2.05
2024-05-09T17:23:21.406Z,2.00
2024-05-09T17:26:08.347Z,1.80
2024-05-09T17:28:55.338Z,2.10
2024-05-09T17:31:42.745Z,1.90
2024-05-09T17:34:29.883Z,1.75
2024-05-09T17:37:19.856Z,2.40
2024-05-09T17:40:16.527Z,1.95
2024-05-09T17:43:05.168Z,2.05
2024-05-09T17:45:53.001Z,2.10
2024-05-09T17:48:40.296Z,1.95
2024-05-09T17:51:27.547Z,1.92
2024-05-09T17:54:14.576Z,3.42
2024-05-09T17:57:01.805Z,2.30
2024-05-09T17:59:54.130Z,1.80
2024-05-09T18:02:43.639Z,1.83
2024-05-09T18:05:30.949Z,2.17
2024-05-09T18:08:18.178Z,1.92
2024-05-09T18:11:05.470Z,2.20
2024-05-09T18:13:54.232Z,1.92
2024-05-09T18:16:41.223Z,2.70
2024-05-09T18:19:28.521Z,2.20
2024-05-09T18:22:15.706Z,2.20
2024-05-09T18:25:05.107Z,6.00
2024-05-09T18:27:52.270Z,8.10
2024-05-09T18:30:40.497Z,3.10
2024-05-09T18:33:27.707Z,2.83
2024-05-09T18:36:17.262Z,2.85
2024-05-09T18:39:04.933Z,3.53
2024-05-09T18:41:51.967Z,4.05
2024-05-09T18:44:39.155Z,3.72
2024-05-09T18:47:26.324Z,4.00
2024-05-09T18:50:24.600Z,3.80
2024-05-09T18:53:19.038Z,4.47
2024-05-09T18:56:07.570Z,4.70
2024-05-09T18:58:54.493Z,4.00
2024-05-09T19:01:43.971Z,3.70
2024-05-09T19:04:31.396Z,4.05
2024-05-09T19:07:19.576Z,3.65
2024-05-09T19:10:11.876Z,3.70
2024-05-09T19:13:11.840Z,4.07
2024-05-09T19:16:00.676Z,2.80
2024-05-09T19:18:47.905Z,2.60
2024-05-09T19:21:35.231Z,2.42
2024-05-09T19:24:22.324Z,2.47
2024-05-09T19:27:09.540Z,2.25
2024-05-09T19:29:57.762Z,2.85
2024-05-09T19:32:45.072Z,2.40
2024-05-09T19:35:32.464Z,2.80
2024-05-09T19:38:19.570Z,3.30
2024-05-09T19:41:07.061Z,3.55
2024-05-09T19:43:53.996Z,3.60
2024-05-09T19:46:41.013Z,3.53
2024-05-09T19:49:28.125Z,3.55
2024-05-09T19:52:18.000Z,3.28
2024-05-09T19:55:05.582Z,3.08
2024-05-09T19:57:52.677Z,3.65
2024-05-09T20:00:43.767Z,2.90
2024-05-09T20:03:36.675Z,3.30
2024-05-09T20:06:26.240Z,3.35
2024-05-09T20:09:13.804Z,3.10
2024-05-09T20:12:00.842Z,3.17
2024-05-09T20:14:47.819Z,3.08
2024-05-09T20:17:34.807Z,3.20
2024-05-09T20:20:32.196Z,3.20
2024-05-09T20:23:24.171Z,3.83
2024-05-09T20:26:11.163Z,3.50
2024-05-09T20:28:58.103Z,3.65
2024-05-09T20:31:45.068Z,3.55
2024-05-09T20:34:32.042Z,3.65
2024-05-09T20:37:19.363Z,3.10
2024-05-09T20:40:12.007Z,3.40
2024-05-09T20:43:02.605Z,3.25
2024-05-09T20:45:49.696Z,3.10
2024-05-09T20:48:39.310Z,3.13
2024-05-09T20:51:28.228Z,3.03
2024-05-09T20:54:15.933Z,2.90
2024-05-09T20:57:03.061Z,3.17
2024-05-09T20:59:50.041Z,3.30
2024-05-09T21:02:38.177Z,3.20
2024-05-09T21:05:25.559Z,3.20
2024-05-09T21:08:15.238Z,3.47
2024-05-09T21:11:04.963Z,3.33
2024-05-09T21:13:54.173Z,3.63
2024-05-09T21:16:41.274Z,3.28
2024-05-09T21:19:28.278Z,3.20
2024-05-09T21:22:15.376Z,3.30
2024-05-09T21:25:02.493Z,3.25
2024-05-09T21:27:49.524Z,3.40
2024-05-09T21:30:41.796Z,3.30
2024-05-09T21:33:30.202Z,3.13
2024-05-09T21:36:19.827Z,3.50
2024-05-09T21:39:09.361Z,3.75
2024-05-09T21:42:01.668Z,3.60
2024-05-09T21:44:48.657Z,3.70
2024-05-09T21:47:35.784Z,3.92
2024-05-09T21:50:28.523Z,3.63
2024-05-09T21:53:25.783Z,3.45
2024-05-09T21:56:12.946Z,3.72
2024-05-09T21:59:02.392Z,3.80
2024-05-09T22:01:49.427Z,3.67
2024-05-09T22:04:38.712Z,4.13
2024-05-09T22:07:27.827Z,3.95
2024-05-09T22:10:22.773Z,3.75
2024-05-09T22:13:15.723Z,3.70
2024-05-09T22:16:03.979Z,5.05
2024-05-09T22:18:51.110Z,4.55
2024-05-09T22:21:43.080Z,4.45
2024-05-09T22:24:35.074Z,4.28
2024-05-09T22:27:22.143Z,4.63
2024-05-09T22:30:14.659Z,4.43
2024-05-09T22:33:05.875Z,4.03
2024-05-09T22:35:56.056Z,4.18
2024-05-09T22:38:42.965Z,4.75
2024-05-09T22:41:34.487Z,4.60
2024-05-09T22:44:21.385Z,5.00
2024-05-09T22:47:08.484Z,7.80
2024-05-09T22:49:55.478Z,7.85
2024-05-09T22:52:44.670Z,6.63
2024-05-09T22:55:31.561Z,6.18
2024-05-09T22:58:19.149Z,4.88
2024-05-09T23:01:06.407Z,4.10
2024-05-09T23:03:53.789Z,4.13
2024-05-09T23:06:41.323Z,4.40
2024-05-09T23:09:28.278Z,4.63
2024-05-09T23:12:17.603Z,4.15
2024-05-09T23:15:07.998Z,4.53
2024-05-09T23:17:55.318Z,3.95
2024-05-09T23:20:42.631Z,3.70
2024-05-09T23:23:29.632Z,4.40
2024-05-09T23:26:18.885Z,3.95
2024-05-09T23:29:08.283Z,4.72
2024-05-09T23:31:57.767Z,5.00
2024-05-09T23:34:44.714Z,4.47
2024-05-09T23:37:31.685Z,4.90
2024-05-09T23:40:22.857Z,4.70
2024-05-09T23:43:13.476Z,5.50
2024-05-09T23:46:00.692Z,5.68
2024-05-09T23:48:47.750Z,5.22
2024-05-09T23:51:34.740Z,5.10
2024-05-09T23:54:22.010Z,4.82
2024-05-09T23:57:09.013Z,4.70
2024-05-09T23:59:57.179Z,5.20
